sensor_id;sensor_type;location;lat;lon;timestamp;temperature;humidity
5258;DHT22;2651;51.594;9.928;2022-10-13T00:00:56;9.70;99.90
5258;DHT22;2651;51.594;9.928;2022-10-13T00:01:57;9.70;99.90
5258;DHT22;2651;51.594;9.928;2022-10-13T00:03:00;9.70;99.90
5258;DHT22;2651;51.594;9.928;2022-10-13T00:04:02;9.70;99.90
5258;DHT22;2651;51.594;9.928;2022-10-13T00:05:04;9.70;99.90
5258;DHT22;2651;51.594;9.928;2022-10-13T00:06:08;9.70;99.90
5258;DHT22;2651;51.594;9.928;2022-10-13T00:07:10;9.70;99.90
5258;DHT22;2651;51.594;9.928;2022-10-13T00:08:14;9.70;99.90
5258;DHT22;2651;51.594;9.928;2022-10-13T00:09:16;9.70;99.90
5258;DHT22;2651;51.594;9.928;2022-10-13T00:10:17;9.70;99.90
5258;DHT22;2651;51.594;9.928;2022-10-13T00:11:21;9.60;99.90
5258;DHT22;2651;51.594;9.928;2022-10-13T00:12:23;9.60;99.90
5258;DHT22;2651;51.594;9.928;2022-10-13T00:13:25;9.60;99.90
5258;DHT22;2651;51.594;9.928;2022-10-13T00:14:27;9.60;99.90
5258;DHT22;2651;51.594;9.928;2022-10-13T00:15:29;9.60;99.90
5258;DHT22;2651;51.594;9.928;2022-10-13T00:16:31;9.60;99.90
5258;DHT22;2651;51.594;9.928;2022-10-13T00:17:33;9.60;99.90
5258;DHT22;2651;51.594;9.928;2022-10-13T00:18:37;9.60;99.90
5258;DHT22;2651;51.594;9.928;2022-10-13T00:19:38;9.60;99.90
5258;DHT22;2651;51.594;9.928;2022-10-13T00:20:45;9.60;99.90
5258;DHT22;2651;51.594;9.928;2022-10-13T00:21:47;9.50;99.90
5258;DHT22;2651;51.594;9.928;2022-10-13T00:22:48;9.40;99.90
5258;DHT22;2651;51.594;9.928;2022-10-13T00:23:51;9.30;99.90
5258;DHT22;2651;51.594;9.928;2022-10-13T00:24:54;9.20;99.90
5258;DHT22;2651;51.594;9.928;2022-10-13T00:25:56;9.30;99.90
5258;DHT22;2651;51.594;9.928;2022-10-13T00:26:58;9.30;99.90
5258;DHT22;2651;51.594;9.928;2022-10-13T00:27:59;9.20;99.90
5258;DHT22;2651;51.594;9.928;2022-10-13T00:29:01;9.20;99.90
5258;DHT22;2651;51.594;9.928;2022-10-13T00:30:03;9.30;99.90
5258;DHT22;2651;51.594;9.928;2022-10-13T00:31:34;9.30;99.90
5258;DHT22;2651;51.594;9.928;2022-10-13T00:32:36;9.30;99.90
5258;DHT22;2651;51.594;9.928;2022-10-13T00:33:37;9.30;99.90
5258;DHT22;2651;51.594;9.928;2022-10-13T00:34:39;9.30;99.90
5258;DHT22;2651;51.594;9.928;2022-10-13T00:35:44;9.30;99.90
5258;DHT22;2651;51.594;9.928;2022-10-13T00:36:46;9.30;99.90
5258;DHT22;2651;51.594;9.928;2022-10-13T00:37:47;9.40;99.90
5258;DHT22;2651;51.594;9.928;2022-10-13T00:38:50;9.40;99.90
5258;DHT22;2651;51.594;9.928;2022-10-13T00:39:52;9.40;99.90
5258;DHT22;2651;51.594;9.928;2022-10-13T00:40:54;9.40;99.90
5258;DHT22;2651;51.594;9.928;2022-10-13T00:41:57;9.50;99.90
5258;DHT22;2651;51.594;9.928;2022-10-13T00:42:59;9.40;99.90
5258;DHT22;2651;51.594;9.928;2022-10-13T00:44:05;9.30;99.90
5258;DHT22;2651;51.594;9.928;2022-10-13T00:45:27;9.30;99.90
5258;DHT22;2651;51.594;9.928;2022-10-13T00:46:32;9.20;99.90
5258;DHT22;2651;51.594;9.928;2022-10-13T00:47:37;9.20;99.90
5258;DHT22;2651;51.594;9.928;2022-10-13T00:48:41;9.30;99.90
5258;DHT22;2651;51.594;9.928;2022-10-13T00:49:43;9.30;99.90
5258;DHT22;2651;51.594;9.928;2022-10-13T00:50:45;9.30;99.90
5258;DHT22;2651;51.594;9.928;2022-10-13T00:51:48;9.30;99.90
5258;DHT22;2651;51.594;9.928;2022-10-13T00:52:52;9.30;99.90
5258;DHT22;2651;51.594;9.928;2022-10-13T00:53:55;9.20;99.90
5258;DHT22;2651;51.594;9.928;2022-10-13T00:54:58;9.30;99.90
5258;DHT22;2651;51.594;9.928;2022-10-13T00:56:00;9.20;99.90
5258;DHT22;2651;51.594;9.928;2022-10-13T00:57:03;9.20;99.90
5258;DHT22;2651;51.594;9.928;2022-10-13T00:58:08;9.20;99.90
5258;DHT22;2651;51.594;9.928;2022-10-13T00:59:17;9.20;99.90
5258;DHT22;2651;51.594;9.928;2022-10-13T01:00:24;9.20;99.90
5258;DHT22;2651;51.594;9.928;2022-10-13T01:01:26;9.20;99.90
5258;DHT22;2651;51.594;9.928;2022-10-13T01:02:31;9.20;99.90
5258;DHT22;2651;51.594;9.928;2022-10-13T01:03:35;9.30;99.90
5258;DHT22;2651;51.594;9.928;2022-10-13T01:04:41;9.30;99.90
5258;DHT22;2651;51.594;9.928;2022-10-13T01:05:44;9.20;99.90
5258;DHT22;2651;51.594;9.928;2022-10-13T01:06:47;9.30;99.90
5258;DHT22;2651;51.594;9.928;2022-10-13T01:07:51;9.30;99.90
5258;DHT22;2651;51.594;9.928;2022-10-13T01:08:53;9.30;99.90
5258;DHT22;2651;51.594;9.928;2022-10-13T01:09:55;9.30;99.90
5258;DHT22;2651;51.594;9.928;2022-10-13T01:15:30;9.40;99.90
5258;DHT22;2651;51.594;9.928;2022-10-13T01:18:05;9.30;99.90
5258;DHT22;2651;51.594;9.928;2022-10-13T01:19:55;9.30;99.90
5258;DHT22;2651;51.594;9.928;2022-10-13T01:21:15;9.40;99.90
5258;DHT22;2651;51.594;9.928;2022-10-13T01:24:45;9.30;99.90
5258;DHT22;2651;51.594;9.928;2022-10-13T01:27:43;9.30;99.90
5258;DHT22;2651;51.594;9.928;2022-10-13T01:29:30;9.30;99.90
5258;DHT22;2651;51.594;9.928;2022-10-13T01:30:42;9.30;99.90
5258;DHT22;2651;51.594;9.928;2022-10-13T01:33:24;9.20;99.90
5258;DHT22;2651;51.594;9.928;2022-10-13T01:34:38;9.20;99.90
5258;DHT22;2651;51.594;9.928;2022-10-13T01:36:03;9.20;99.90
5258;DHT22;2651;51.594;9.928;2022-10-13T01:37:30;9.10;99.90
5258;DHT22;2651;51.594;9.928;2022-10-13T01:40:09;9.10;99.90
5258;DHT22;2651;51.594;9.928;2022-10-13T01:41:18;9.20;99.90
5258;DHT22;2651;51.594;9.928;2022-10-13T01:42:26;9.30;99.90
5258;DHT22;2651;51.594;9.928;2022-10-13T01:43:34;9.20;99.90
5258;DHT22;2651;51.594;9.928;2022-10-13T01:44:41;9.30;99.90
5258;DHT22;2651;51.594;9.928;2022-10-13T01:45:49;9.30;99.90
5258;DHT22;2651;51.594;9.928;2022-10-13T01:46:53;9.20;99.90
5258;DHT22;2651;51.594;9.928;2022-10-13T01:47:56;9.20;99.90
5258;DHT22;2651;51.594;9.928;2022-10-13T01:49:04;9.10;99.90
5258;DHT22;2651;51.594;9.928;2022-10-13T01:50:06;9.10;99.90
5258;DHT22;2651;51.594;9.928;2022-10-13T01:51:15;9.00;99.90
5258;DHT22;2651;51.594;9.928;2022-10-13T01:52:19;9.10;99.90
5258;DHT22;2651;51.594;9.928;2022-10-13T01:53:22;9.10;99.90
5258;DHT22;2651;51.594;9.928;2022-10-13T01:54:24;9.20;99.90
5258;DHT22;2651;51.594;9.928;2022-10-13T01:55:26;9.10;99.90
5258;DHT22;2651;51.594;9.928;2022-10-13T01:56:29;9.10;99.90
5258;DHT22;2651;51.594;9.928;2022-10-13T01:57:34;9.10;99.90
5258;DHT22;2651;51.594;9.928;2022-10-13T01:58:37;9.10;99.90
5258;DHT22;2651;51.594;9.928;2022-10-13T01:59:39;9.10;99.90
5258;DHT22;2651;51.594;9.928;2022-10-13T02:00:47;9.00;99.90
5258;DHT22;2651;51.594;9.928;2022-10-13T02:02:11;9.10;99.90
5258;DHT22;2651;51.594;9.928;2022-10-13T02:03:52;9.10;99.90
5258;DHT22;2651;51.594;9.928;2022-10-13T02:06:23;9.20;99.90
5258;DHT22;2651;51.594;9.928;2022-10-13T02:07:45;9.10;99.90
5258;DHT22;2651;51.594;9.928;2022-10-13T02:09:59;9.10;99.90
5258;DHT22;2651;51.594;9.928;2022-10-13T02:11:12;9.00;99.90
5258;DHT22;2651;51.594;9.928;2022-10-13T02:12:25;9.00;99.90
5258;DHT22;2651;51.594;9.928;2022-10-13T02:13:28;9.00;99.90
5258;DHT22;2651;51.594;9.928;2022-10-13T02:14:33;9.10;99.90
5258;DHT22;2651;51.594;9.928;2022-10-13T02:15:46;9.10;99.90
5258;DHT22;2651;51.594;9.928;2022-10-13T02:16:50;9.10;99.90
5258;DHT22;2651;51.594;9.928;2022-10-13T02:17:54;9.10;99.90
5258;DHT22;2651;51.594;9.928;2022-10-13T02:18:57;9.00;99.90
5258;DHT22;2651;51.594;9.928;2022-10-13T02:19:59;9.00;99.90
5258;DHT22;2651;51.594;9.928;2022-10-13T02:21:01;9.00;99.90
5258;DHT22;2651;51.594;9.928;2022-10-13T02:22:05;9.00;99.90
5258;DHT22;2651;51.594;9.928;2022-10-13T02:23:11;9.00;99.90
5258;DHT22;2651;51.594;9.928;2022-10-13T02:24:14;9.00;99.90
5258;DHT22;2651;51.594;9.928;2022-10-13T02:25:16;9.00;99.90
5258;DHT22;2651;51.594;9.928;2022-10-13T02:26:18;9.00;99.90
5258;DHT22;2651;51.594;9.928;2022-10-13T02:27:20;9.00;99.90
5258;DHT22;2651;51.594;9.928;2022-10-13T02:28:22;8.90;99.90
5258;DHT22;2651;51.594;9.928;2022-10-13T02:30:28;8.80;99.90
5258;DHT22;2651;51.594;9.928;2022-10-13T02:31:30;8.70;99.90
5258;DHT22;2651;51.594;9.928;2022-10-13T02:32:32;8.70;99.90
5258;DHT22;2651;51.594;9.928;2022-10-13T02:33:34;8.60;99.90
5258;DHT22;2651;51.594;9.928;2022-10-13T02:34:35;8.60;99.90
5258;DHT22;2651;51.594;9.928;2022-10-13T02:35:38;8.60;99.90
5258;DHT22;2651;51.594;9.928;2022-10-13T02:36:40;8.60;99.90
5258;DHT22;2651;51.594;9.928;2022-10-13T02:37:41;8.60;99.90
5258;DHT22;2651;51.594;9.928;2022-10-13T02:38:43;8.70;99.90
5258;DHT22;2651;51.594;9.928;2022-10-13T02:39:44;8.70;99.90
5258;DHT22;2651;51.594;9.928;2022-10-13T02:40:46;8.60;99.90
5258;DHT22;2651;51.594;9.928;2022-10-13T02:41:48;8.70;99.90
5258;DHT22;2651;51.594;9.928;2022-10-13T02:42:51;8.70;99.90
5258;DHT22;2651;51.594;9.928;2022-10-13T02:43:52;8.70;99.90
5258;DHT22;2651;51.594;9.928;2022-10-13T02:44:54;8.80;99.90
5258;DHT22;2651;51.594;9.928;2022-10-13T02:45:56;8.90;99.90
5258;DHT22;2651;51.594;9.928;2022-10-13T02:46:58;8.90;99.90
5258;DHT22;2651;51.594;9.928;2022-10-13T02:47:59;9.00;99.90
5258;DHT22;2651;51.594;9.928;2022-10-13T02:49:01;9.00;99.90
5258;DHT22;2651;51.594;9.928;2022-10-13T02:50:03;9.00;99.90
5258;DHT22;2651;51.594;9.928;2022-10-13T02:51:05;8.90;99.90
5258;DHT22;2651;51.594;9.928;2022-10-13T02:52:07;8.90;99.90
5258;DHT22;2651;51.594;9.928;2022-10-13T02:53:09;8.90;99.90
5258;DHT22;2651;51.594;9.928;2022-10-13T02:54:10;8.90;99.90
5258;DHT22;2651;51.594;9.928;2022-10-13T02:55:12;9.00;99.90
5258;DHT22;2651;51.594;9.928;2022-10-13T02:56:14;9.00;99.90
5258;DHT22;2651;51.594;9.928;2022-10-13T02:57:17;9.00;99.90
5258;DHT22;2651;51.594;9.928;2022-10-13T02:58:18;9.10;99.90
5258;DHT22;2651;51.594;9.928;2022-10-13T02:59:20;9.10;99.90
5258;DHT22;2651;51.594;9.928;2022-10-13T03:00:22;9.10;99.90
5258;DHT22;2651;51.594;9.928;2022-10-13T03:01:23;9.00;99.90
5258;DHT22;2651;51.594;9.928;2022-10-13T03:02:26;9.10;99.90
5258;DHT22;2651;51.594;9.928;2022-10-13T03:03:28;9.00;99.90
5258;DHT22;2651;51.594;9.928;2022-10-13T03:04:29;9.00;99.90
5258;DHT22;2651;51.594;9.928;2022-10-13T03:05:31;9.00;99.90
5258;DHT22;2651;51.594;9.928;2022-10-13T03:06:33;9.00;99.90
5258;DHT22;2651;51.594;9.928;2022-10-13T03:07:35;9.10;99.90
5258;DHT22;2651;51.594;9.928;2022-10-13T03:08:37;9.10;99.90
5258;DHT22;2651;51.594;9.928;2022-10-13T03:09:38;9.10;99.90
5258;DHT22;2651;51.594;9.928;2022-10-13T03:10:40;9.10;99.90
5258;DHT22;2651;51.594;9.928;2022-10-13T03:11:41;9.20;99.90
5258;DHT22;2651;51.594;9.928;2022-10-13T03:12:43;9.10;99.90
5258;DHT22;2651;51.594;9.928;2022-10-13T03:13:45;9.10;99.90
5258;DHT22;2651;51.594;9.928;2022-10-13T03:14:46;9.10;99.90
5258;DHT22;2651;51.594;9.928;2022-10-13T03:15:48;9.00;99.90
5258;DHT22;2651;51.594;9.928;2022-10-13T03:16:50;9.00;99.90
5258;DHT22;2651;51.594;9.928;2022-10-13T03:17:52;9.00;99.90
5258;DHT22;2651;51.594;9.928;2022-10-13T03:18:53;9.00;99.90
5258;DHT22;2651;51.594;9.928;2022-10-13T03:19:55;9.00;99.90
5258;DHT22;2651;51.594;9.928;2022-10-13T03:21:02;9.00;99.90
5258;DHT22;2651;51.594;9.928;2022-10-13T03:22:04;9.00;99.90
5258;DHT22;2651;51.594;9.928;2022-10-13T03:23:06;8.90;99.90
5258;DHT22;2651;51.594;9.928;2022-10-13T03:24:08;8.90;99.90
5258;DHT22;2651;51.594;9.928;2022-10-13T03:25:09;8.80;99.90
5258;DHT22;2651;51.594;9.928;2022-10-13T03:26:11;8.70;99.90
5258;DHT22;2651;51.594;9.928;2022-10-13T03:27:13;8.70;99.90
5258;DHT22;2651;51.594;9.928;2022-10-13T03:28:14;8.70;99.90
5258;DHT22;2651;51.594;9.928;2022-10-13T03:29:17;8.60;99.90
5258;DHT22;2651;51.594;9.928;2022-10-13T03:30:18;8.60;99.90
5258;DHT22;2651;51.594;9.928;2022-10-13T03:31:20;8.50;99.90
5258;DHT22;2651;51.594;9.928;2022-10-13T03:32:22;8.50;99.90
5258;DHT22;2651;51.594;9.928;2022-10-13T03:33:23;8.60;99.90
5258;DHT22;2651;51.594;9.928;2022-10-13T03:34:25;8.60;99.90
5258;DHT22;2651;51.594;9.928;2022-10-13T03:35:27;8.60;99.90
5258;DHT22;2651;51.594;9.928;2022-10-13T03:36:28;8.50;99.90
5258;DHT22;2651;51.594;9.928;2022-10-13T03:37:30;8.50;99.90
5258;DHT22;2651;51.594;9.928;2022-10-13T03:38:33;8.60;99.90
5258;DHT22;2651;51.594;9.928;2022-10-13T03:39:35;8.50;99.90
5258;DHT22;2651;51.594;9.928;2022-10-13T03:40:36;8.50;99.90
5258;DHT22;2651;51.594;9.928;2022-10-13T03:41:38;8.50;99.90
5258;DHT22;2651;51.594;9.928;2022-10-13T03:42:40;8.40;99.90
5258;DHT22;2651;51.594;9.928;2022-10-13T03:43:43;8.40;99.90
5258;DHT22;2651;51.594;9.928;2022-10-13T03:44:45;8.50;99.90
5258;DHT22;2651;51.594;9.928;2022-10-13T03:45:57;8.50;99.90
5258;DHT22;2651;51.594;9.928;2022-10-13T03:46:59;8.50;99.90
5258;DHT22;2651;51.594;9.928;2022-10-13T03:48:00;8.50;99.90
5258;DHT22;2651;51.594;9.928;2022-10-13T03:49:02;8.50;99.90
5258;DHT22;2651;51.594;9.928;2022-10-13T03:50:05;8.50;99.90
5258;DHT22;2651;51.594;9.928;2022-10-13T03:51:09;8.50;99.90
5258;DHT22;2651;51.594;9.928;2022-10-13T03:52:11;8.60;99.90
5258;DHT22;2651;51.594;9.928;2022-10-13T03:53:12;8.60;99.90
5258;DHT22;2651;51.594;9.928;2022-10-13T03:54:14;8.60;99.90
5258;DHT22;2651;51.594;9.928;2022-10-13T03:55:16;8.60;99.90
5258;DHT22;2651;51.594;9.928;2022-10-13T03:56:20;8.60;99.90
5258;DHT22;2651;51.594;9.928;2022-10-13T03:57:21;8.50;99.90
5258;DHT22;2651;51.594;9.928;2022-10-13T03:58:24;8.60;99.90
5258;DHT22;2651;51.594;9.928;2022-10-13T03:59:25;8.60;99.90
5258;DHT22;2651;51.594;9.928;2022-10-13T04:00:36;8.60;99.90
5258;DHT22;2651;51.594;9.928;2022-10-13T04:01:38;8.60;99.90
5258;DHT22;2651;51.594;9.928;2022-10-13T04:02:40;8.60;99.90
5258;DHT22;2651;51.594;9.928;2022-10-13T04:03:41;8.70;99.90
5258;DHT22;2651;51.594;9.928;2022-10-13T04:04:43;8.70;99.90
5258;DHT22;2651;51.594;9.928;2022-10-13T04:05:45;8.70;99.90
5258;DHT22;2651;51.594;9.928;2022-10-13T04:06:47;8.80;99.90
5258;DHT22;2651;51.594;9.928;2022-10-13T04:07:48;8.80;99.90
5258;DHT22;2651;51.594;9.928;2022-10-13T04:08:50;8.80;99.90
5258;DHT22;2651;51.594;9.928;2022-10-13T04:09:52;8.90;99.90
5258;DHT22;2651;51.594;9.928;2022-10-13T04:11:02;8.90;99.90
5258;DHT22;2651;51.594;9.928;2022-10-13T04:12:05;8.90;99.90
5258;DHT22;2651;51.594;9.928;2022-10-13T04:13:07;8.80;99.90
5258;DHT22;2651;51.594;9.928;2022-10-13T04:14:08;8.80;99.90
5258;DHT22;2651;51.594;9.928;2022-10-13T04:15:10;8.90;99.90
5258;DHT22;2651;51.594;9.928;2022-10-13T04:17:15;8.80;99.90
5258;DHT22;2651;51.594;9.928;2022-10-13T04:18:16;8.80;99.90
5258;DHT22;2651;51.594;9.928;2022-10-13T04:19:18;8.80;99.90
5258;DHT22;2651;51.594;9.928;2022-10-13T04:20:20;8.80;99.90
5258;DHT22;2651;51.594;9.928;2022-10-13T04:21:22;8.90;99.90
5258;DHT22;2651;51.594;9.928;2022-10-13T04:22:24;8.80;99.90
5258;DHT22;2651;51.594;9.928;2022-10-13T04:23:26;8.80;99.90
5258;DHT22;2651;51.594;9.928;2022-10-13T04:24:27;8.90;99.90
5258;DHT22;2651;51.594;9.928;2022-10-13T04:25:29;8.80;99.90
5258;DHT22;2651;51.594;9.928;2022-10-13T04:26:33;8.90;99.90
5258;DHT22;2651;51.594;9.928;2022-10-13T04:27:35;8.80;99.90
5258;DHT22;2651;51.594;9.928;2022-10-13T04:28:39;8.80;99.90
5258;DHT22;2651;51.594;9.928;2022-10-13T04:29:41;8.70;99.90
5258;DHT22;2651;51.594;9.928;2022-10-13T04:30:43;8.60;99.90
5258;DHT22;2651;51.594;9.928;2022-10-13T04:31:49;8.60;99.90
5258;DHT22;2651;51.594;9.928;2022-10-13T04:32:51;8.60;99.90
5258;DHT22;2651;51.594;9.928;2022-10-13T04:33:53;8.50;99.90
5258;DHT22;2651;51.594;9.928;2022-10-13T04:34:55;8.50;99.90
5258;DHT22;2651;51.594;9.928;2022-10-13T04:35:57;8.60;99.90
5258;DHT22;2651;51.594;9.928;2022-10-13T04:36:58;8.60;99.90
5258;DHT22;2651;51.594;9.928;2022-10-13T04:38:00;8.60;99.90
5258;DHT22;2651;51.594;9.928;2022-10-13T04:39:02;8.70;99.90
5258;DHT22;2651;51.594;9.928;2022-10-13T04:40:04;8.70;99.90
5258;DHT22;2651;51.594;9.928;2022-10-13T04:41:07;8.70;99.90
5258;DHT22;2651;51.594;9.928;2022-10-13T04:42:09;8.70;99.90
5258;DHT22;2651;51.594;9.928;2022-10-13T04:43:10;8.90;99.90
5258;DHT22;2651;51.594;9.928;2022-10-13T04:44:12;8.90;99.90
5258;DHT22;2651;51.594;9.928;2022-10-13T04:45:14;9.00;99.90
5258;DHT22;2651;51.594;9.928;2022-10-13T04:46:18;9.00;99.90
5258;DHT22;2651;51.594;9.928;2022-10-13T04:47:19;9.00;99.90
5258;DHT22;2651;51.594;9.928;2022-10-13T04:48:21;9.00;99.90
5258;DHT22;2651;51.594;9.928;2022-10-13T04:49:23;9.00;99.90
5258;DHT22;2651;51.594;9.928;2022-10-13T04:50:25;8.90;99.90
5258;DHT22;2651;51.594;9.928;2022-10-13T04:51:27;8.90;99.90
5258;DHT22;2651;51.594;9.928;2022-10-13T04:52:29;8.90;99.90
5258;DHT22;2651;51.594;9.928;2022-10-13T04:53:31;9.00;99.90
5258;DHT22;2651;51.594;9.928;2022-10-13T04:54:32;9.00;99.90
5258;DHT22;2651;51.594;9.928;2022-10-13T04:55:35;9.00;99.90
5258;DHT22;2651;51.594;9.928;2022-10-13T04:56:37;9.00;99.90
5258;DHT22;2651;51.594;9.928;2022-10-13T04:57:39;9.00;99.90
5258;DHT22;2651;51.594;9.928;2022-10-13T04:58:42;9.10;99.90
5258;DHT22;2651;51.594;9.928;2022-10-13T04:59:44;9.10;99.90
5258;DHT22;2651;51.594;9.928;2022-10-13T05:00:46;9.10;99.90
5258;DHT22;2651;51.594;9.928;2022-10-13T05:01:48;9.00;99.90
5258;DHT22;2651;51.594;9.928;2022-10-13T05:02:49;9.00;99.90
5258;DHT22;2651;51.594;9.928;2022-10-13T05:03:56;9.00;99.90
5258;DHT22;2651;51.594;9.928;2022-10-13T05:04:58;9.00;99.90
5258;DHT22;2651;51.594;9.928;2022-10-13T05:06:00;8.90;99.90
5258;DHT22;2651;51.594;9.928;2022-10-13T05:07:02;8.90;99.90
5258;DHT22;2651;51.594;9.928;2022-10-13T05:08:18;9.00;99.90
5258;DHT22;2651;51.594;9.928;2022-10-13T05:09:20;9.00;99.90
5258;DHT22;2651;51.594;9.928;2022-10-13T05:10:22;8.90;99.90
5258;DHT22;2651;51.594;9.928;2022-10-13T05:11:25;8.90;99.90
5258;DHT22;2651;51.594;9.928;2022-10-13T05:12:27;8.80;99.90
5258;DHT22;2651;51.594;9.928;2022-10-13T05:13:29;8.80;99.90
5258;DHT22;2651;51.594;9.928;2022-10-13T05:14:31;8.80;99.90
5258;DHT22;2651;51.594;9.928;2022-10-13T05:15:33;8.80;99.90
5258;DHT22;2651;51.594;9.928;2022-10-13T05:16:35;8.80;99.90
5258;DHT22;2651;51.594;9.928;2022-10-13T05:17:37;8.80;99.90
5258;DHT22;2651;51.594;9.928;2022-10-13T05:18:38;8.70;99.90
5258;DHT22;2651;51.594;9.928;2022-10-13T05:19:40;8.80;99.90
5258;DHT22;2651;51.594;9.928;2022-10-13T05:20:41;8.80;99.90
5258;DHT22;2651;51.594;9.928;2022-10-13T05:21:43;8.70;99.90
5258;DHT22;2651;51.594;9.928;2022-10-13T05:22:45;8.70;99.90
5258;DHT22;2651;51.594;9.928;2022-10-13T05:23:47;8.70;99.90
5258;DHT22;2651;51.594;9.928;2022-10-13T05:24:49;8.60;99.90
5258;DHT22;2651;51.594;9.928;2022-10-13T05:25:50;8.70;99.90
5258;DHT22;2651;51.594;9.928;2022-10-13T05:26:52;8.60;99.90
5258;DHT22;2651;51.594;9.928;2022-10-13T05:27:54;8.60;99.90
5258;DHT22;2651;51.594;9.928;2022-10-13T05:28:59;8.50;99.90
5258;DHT22;2651;51.594;9.928;2022-10-13T05:30:02;8.50;99.90
5258;DHT22;2651;51.594;9.928;2022-10-13T05:31:14;8.60;99.90
5258;DHT22;2651;51.594;9.928;2022-10-13T05:32:16;8.60;99.90
5258;DHT22;2651;51.594;9.928;2022-10-13T05:33:18;8.60;99.90
5258;DHT22;2651;51.594;9.928;2022-10-13T05:34:19;8.70;99.90
5258;DHT22;2651;51.594;9.928;2022-10-13T05:35:21;8.60;99.90
5258;DHT22;2651;51.594;9.928;2022-10-13T05:36:25;8.60;99.90
5258;DHT22;2651;51.594;9.928;2022-10-13T05:37:27;8.60;99.90
5258;DHT22;2651;51.594;9.928;2022-10-13T05:38:28;8.60;99.90
5258;DHT22;2651;51.594;9.928;2022-10-13T05:39:30;8.60;99.90
5258;DHT22;2651;51.594;9.928;2022-10-13T05:40:31;8.60;99.90
5258;DHT22;2651;51.594;9.928;2022-10-13T05:41:33;8.60;99.90
5258;DHT22;2651;51.594;9.928;2022-10-13T05:42:35;8.60;99.90
5258;DHT22;2651;51.594;9.928;2022-10-13T05:43:38;8.60;99.90
5258;DHT22;2651;51.594;9.928;2022-10-13T05:44:40;8.60;99.90
5258;DHT22;2651;51.594;9.928;2022-10-13T05:45:42;8.70;99.90
5258;DHT22;2651;51.594;9.928;2022-10-13T05:46:44;8.60;99.90
5258;DHT22;2651;51.594;9.928;2022-10-13T05:47:45;8.60;99.90
5258;DHT22;2651;51.594;9.928;2022-10-13T05:48:47;8.60;99.90
5258;DHT22;2651;51.594;9.928;2022-10-13T05:49:49;8.60;99.90
5258;DHT22;2651;51.594;9.928;2022-10-13T05:50:51;8.60;99.90
5258;DHT22;2651;51.594;9.928;2022-10-13T05:51:55;8.70;99.90
5258;DHT22;2651;51.594;9.928;2022-10-13T05:52:58;8.60;99.90
5258;DHT22;2651;51.594;9.928;2022-10-13T05:54:22;8.70;99.90
5258;DHT22;2651;51.594;9.928;2022-10-13T05:55:25;8.70;99.90
5258;DHT22;2651;51.594;9.928;2022-10-13T05:56:31;8.70;99.90
5258;DHT22;2651;51.594;9.928;2022-10-13T05:57:38;8.70;99.90
5258;DHT22;2651;51.594;9.928;2022-10-13T05:58:45;8.70;99.90
5258;DHT22;2651;51.594;9.928;2022-10-13T05:59:52;8.70;99.90
5258;DHT22;2651;51.594;9.928;2022-10-13T06:00:56;8.70;99.90
5258;DHT22;2651;51.594;9.928;2022-10-13T06:01:58;8.70;99.90
5258;DHT22;2651;51.594;9.928;2022-10-13T06:03:03;8.70;99.90
5258;DHT22;2651;51.594;9.928;2022-10-13T06:04:16;8.80;99.90
5258;DHT22;2651;51.594;9.928;2022-10-13T06:05:20;8.80;99.90
5258;DHT22;2651;51.594;9.928;2022-10-13T06:06:23;8.80;99.90
5258;DHT22;2651;51.594;9.928;2022-10-13T06:07:32;8.80;99.90
5258;DHT22;2651;51.594;9.928;2022-10-13T06:08:33;8.80;99.90
5258;DHT22;2651;51.594;9.928;2022-10-13T06:09:37;8.80;99.90
5258;DHT22;2651;51.594;9.928;2022-10-13T06:10:39;8.80;99.90
5258;DHT22;2651;51.594;9.928;2022-10-13T06:11:41;8.70;99.90
5258;DHT22;2651;51.594;9.928;2022-10-13T06:12:43;8.70;99.90
5258;DHT22;2651;51.594;9.928;2022-10-13T06:13:45;8.80;99.90
5258;DHT22;2651;51.594;9.928;2022-10-13T06:14:46;8.80;99.90
5258;DHT22;2651;51.594;9.928;2022-10-13T06:15:48;8.80;99.90
5258;DHT22;2651;51.594;9.928;2022-10-13T06:16:50;8.80;99.90
5258;DHT22;2651;51.594;9.928;2022-10-13T06:17:52;8.80;99.90
5258;DHT22;2651;51.594;9.928;2022-10-13T06:18:53;8.70;99.90
5258;DHT22;2651;51.594;9.928;2022-10-13T06:19:55;8.70;99.90
5258;DHT22;2651;51.594;9.928;2022-10-13T06:20:57;8.70;99.90
5258;DHT22;2651;51.594;9.928;2022-10-13T06:21:58;8.80;99.90
5258;DHT22;2651;51.594;9.928;2022-10-13T06:23:04;8.80;99.90
5258;DHT22;2651;51.594;9.928;2022-10-13T06:24:06;8.90;99.90
5258;DHT22;2651;51.594;9.928;2022-10-13T06:25:08;9.00;99.90
5258;DHT22;2651;51.594;9.928;2022-10-13T06:26:09;9.10;99.90
5258;DHT22;2651;51.594;9.928;2022-10-13T06:27:11;9.10;99.90
5258;DHT22;2651;51.594;9.928;2022-10-13T06:28:13;9.20;99.90
5258;DHT22;2651;51.594;9.928;2022-10-13T06:29:15;9.20;99.90
5258;DHT22;2651;51.594;9.928;2022-10-13T06:30:16;9.30;99.90
5258;DHT22;2651;51.594;9.928;2022-10-13T06:31:18;9.30;99.90
5258;DHT22;2651;51.594;9.928;2022-10-13T06:32:20;9.20;99.90
5258;DHT22;2651;51.594;9.928;2022-10-13T06:33:23;9.20;99.90
5258;DHT22;2651;51.594;9.928;2022-10-13T06:34:25;9.20;99.90
5258;DHT22;2651;51.594;9.928;2022-10-13T06:35:27;9.10;99.90
5258;DHT22;2651;51.594;9.928;2022-10-13T06:36:29;9.00;99.90
5258;DHT22;2651;51.594;9.928;2022-10-13T06:37:30;9.10;99.90
5258;DHT22;2651;51.594;9.928;2022-10-13T06:38:32;9.10;99.90
5258;DHT22;2651;51.594;9.928;2022-10-13T06:39:34;9.20;99.90
5258;DHT22;2651;51.594;9.928;2022-10-13T06:40:36;9.20;99.90
5258;DHT22;2651;51.594;9.928;2022-10-13T06:41:37;9.20;99.90
5258;DHT22;2651;51.594;9.928;2022-10-13T06:42:39;9.20;99.90
5258;DHT22;2651;51.594;9.928;2022-10-13T06:43:41;9.20;99.90
5258;DHT22;2651;51.594;9.928;2022-10-13T06:44:42;9.20;99.90
5258;DHT22;2651;51.594;9.928;2022-10-13T06:45:44;9.30;99.90
5258;DHT22;2651;51.594;9.928;2022-10-13T06:46:46;9.30;99.90
5258;DHT22;2651;51.594;9.928;2022-10-13T06:47:47;9.30;99.90
5258;DHT22;2651;51.594;9.928;2022-10-13T06:48:49;9.40;99.90
5258;DHT22;2651;51.594;9.928;2022-10-13T06:49:51;9.40;99.90
5258;DHT22;2651;51.594;9.928;2022-10-13T06:50:53;9.40;99.90
5258;DHT22;2651;51.594;9.928;2022-10-13T06:51:55;9.40;99.90
5258;DHT22;2651;51.594;9.928;2022-10-13T06:52:56;9.40;99.90
5258;DHT22;2651;51.594;9.928;2022-10-13T06:53:58;9.40;99.90
5258;DHT22;2651;51.594;9.928;2022-10-13T06:55:00;9.50;99.90
5258;DHT22;2651;51.594;9.928;2022-10-13T06:56:05;9.60;99.90
5258;DHT22;2651;51.594;9.928;2022-10-13T06:57:07;9.60;99.90
5258;DHT22;2651;51.594;9.928;2022-10-13T06:58:09;9.60;99.90
5258;DHT22;2651;51.594;9.928;2022-10-13T06:59:11;9.70;99.90
5258;DHT22;2651;51.594;9.928;2022-10-13T07:00:13;9.70;99.90
5258;DHT22;2651;51.594;9.928;2022-10-13T07:01:15;9.80;99.90
5258;DHT22;2651;51.594;9.928;2022-10-13T07:02:16;9.90;99.90
5258;DHT22;2651;51.594;9.928;2022-10-13T07:03:19;9.90;99.90
5258;DHT22;2651;51.594;9.928;2022-10-13T07:04:21;10.00;99.90
5258;DHT22;2651;51.594;9.928;2022-10-13T07:05:23;10.00;99.90
5258;DHT22;2651;51.594;9.928;2022-10-13T07:06:25;10.10;99.90
5258;DHT22;2651;51.594;9.928;2022-10-13T07:07:26;10.10;99.90
5258;DHT22;2651;51.594;9.928;2022-10-13T07:08:29;10.00;99.90
5258;DHT22;2651;51.594;9.928;2022-10-13T07:09:30;10.10;99.90
5258;DHT22;2651;51.594;9.928;2022-10-13T07:10:32;10.10;99.90
5258;DHT22;2651;51.594;9.928;2022-10-13T07:11:34;10.10;99.90
5258;DHT22;2651;51.594;9.928;2022-10-13T07:12:36;10.10;99.90
5258;DHT22;2651;51.594;9.928;2022-10-13T07:13:38;10.00;99.90
5258;DHT22;2651;51.594;9.928;2022-10-13T07:14:47;10.00;99.90
5258;DHT22;2651;51.594;9.928;2022-10-13T07:15:49;9.90;99.90
5258;DHT22;2651;51.594;9.928;2022-10-13T07:16:50;9.90;99.90
5258;DHT22;2651;51.594;9.928;2022-10-13T07:17:52;10.00;99.90
5258;DHT22;2651;51.594;9.928;2022-10-13T07:18:55;10.10;99.90
5258;DHT22;2651;51.594;9.928;2022-10-13T07:19:56;10.20;99.90